Time;durP1;ratioP1;P1;durP2;ratioP2;P2;SDS_P1;SDS_P2;PMS_P1;PMS_P2;Temp;Humidity;BMP_temperature;BMP_pressure;BME280_temperature;BME280_humidity;BME280_pressure;Samples;Min_cycle;Max_cycle;Signal;HPM_P1;HPM_P2
2020/12/02 00:00:56;;;;;;;0.40;0.40;;;9.90;99.90;;;;;;4998192;28;20166;-73
2020/12/02 00:03:32;;;;;;;1.55;1.45;;;10.00;99.90;;;;;;4997711;28;20181;-74
2020/12/02 00:05:58;;;;;;;0.85;0.85;;;9.90;99.90;;;;;;4997384;28;20168;-75
2020/12/02 00:08:36;;;;;;;7.57;0.95;;;9.80;99.90;;;;;;4996321;28;20165;-73
2020/12/02 00:11:06;;;;;;;1.20;1.15;;;9.80;99.90;;;;;;4998785;28;20308;-74
2020/12/02 00:13:35;;;;;;;0.90;0.90;;;9.70;99.90;;;;;;4999220;28;20172;-74
2020/12/02 00:16:03;;;;;;;1.05;1.05;;;9.60;99.90;;;;;;5000916;28;20161;-74
2020/12/02 00:18:29;;;;;;;1.83;1.33;;;9.40;99.90;;;;;;4997422;28;20629;-74
2020/12/02 00:20:54;;;;;;;0.70;0.70;;;9.50;99.90;;;;;;4998398;28;20169;-73
2020/12/02 00:23:20;;;;;;;4.32;1.85;;;9.70;99.90;;;;;;4999988;28;20171;-74
2020/12/02 00:25:46;;;;;;;1.23;0.95;;;9.60;99.90;;;;;;4998842;28;20165;-75
2020/12/02 00:28:13;;;;;;;0.50;0.50;;;9.50;99.90;;;;;;4999575;28;20676;-75
2020/12/02 00:30:40;;;;;;;0.70;0.70;;;9.50;99.90;;;;;;4999036;28;20668;-76
2020/12/02 00:33:09;;;;;;;0.88;0.88;;;9.60;99.90;;;;;;4998458;28;20161;-75
2020/12/02 00:35:35;;;;;;;7.47;1.48;;;9.60;99.90;;;;;;4995664;28;20627;-74
2020/12/02 00:38:02;;;;;;;0.60;0.60;;;9.70;99.90;;;;;;4996597;28;20609;-74
2020/12/02 00:40:27;;;;;;;2.58;2.00;;;9.90;99.90;;;;;;4996374;28;20162;-74
2020/12/02 00:42:53;;;;;;;1.52;1.45;;;10.10;99.90;;;;;;4996236;28;20284;-74
2020/12/02 00:45:19;;;;;;;0.80;0.80;;;10.10;99.90;;;;;;4996545;28;20158;-76
2020/12/02 00:47:49;;;;;;;1.17;0.85;;;10.00;99.90;;;;;;4996238;28;20518;-74
2020/12/02 00:50:15;;;;;;;0.70;0.70;;;9.90;99.90;;;;;;4996210;28;20215;-74
2020/12/02 00:52:40;;;;;;;0.88;0.88;;;9.90;99.90;;;;;;4996138;28;20189;-74
2020/12/02 00:55:06;;;;;;;0.88;0.88;;;10.00;99.90;;;;;;4996108;28;20161;-74
2020/12/02 00:57:35;;;;;;;1.52;1.42;;;9.90;99.90;;;;;;4996202;28;20558;-75
2020/12/02 01:00:06;;;;;;;1.60;1.27;;;9.90;99.90;;;;;;4995242;28;20544;-74
2020/12/02 01:02:37;;;;;;;5.65;2.58;;;9.80;99.90;;;;;;4995965;28;20181;-75
2020/12/02 01:05:14;;;;;;;1.25;1.20;;;10.00;99.90;;;;;;4995969;28;20236;-74
2020/12/02 01:07:41;;;;;;;0.70;0.70;;;9.80;99.90;;;;;;4995952;28;20161;-75
2020/12/02 01:10:09;;;;;;;1.08;1.02;;;10.10;99.90;;;;;;4995765;28;20193;-74
2020/12/02 01:12:37;;;;;;;1.77;1.67;;;9.90;99.90;;;;;;4995637;28;20189;-74
2020/12/02 01:15:06;;;;;;;1.52;1.42;;;9.70;99.90;;;;;;4995742;28;20161;-74
2020/12/02 01:17:32;;;;;;;1.15;1.08;;;9.60;99.90;;;;;;4995793;28;20161;-74
2020/12/02 01:19:57;;;;;;;2.20;1.85;;;9.80;99.90;;;;;;4995639;28;20252;-74
2020/12/02 01:22:38;;;;;;;1.25;1.25;;;9.80;99.90;;;;;;4995489;28;20196;-73
2020/12/02 01:25:18;;;;;;;1.95;1.23;;;9.70;99.90;;;;;;4994245;28;20176;-73
2020/12/02 01:28:07;;;;;;;2.05;1.40;;;9.60;99.90;;;;;;4995234;28;20192;-74
2020/12/02 01:30:35;;;;;;;0.55;0.55;;;9.60;99.90;;;;;;4995454;28;20224;-74
2020/12/02 01:33:01;;;;;;;2.15;1.92;;;9.50;99.90;;;;;;4995392;28;20232;-74
2020/12/02 01:35:29;;;;;;;1.48;1.38;;;9.70;99.90;;;;;;4995294;28;20617;-74
2020/12/02 01:37:58;;;;;;;1.13;1.13;;;9.40;99.90;;;;;;4995380;28;20204;-74
2020/12/02 01:40:26;;;;;;;1.85;1.75;;;9.50;99.90;;;;;;4995208;28;20656;-74
2020/12/02 01:43:01;;;;;;;1.77;1.70;;;9.60;99.90;;;;;;4995245;28;20192;-75
2020/12/02 01:45:41;;;;;;;3.90;1.25;;;9.90;99.90;;;;;;4995413;28;20165;-75
2020/12/02 01:48:25;;;;;;;2.30;1.27;;;10.00;99.90;;;;;;4995137;28;20157;-75
2020/12/02 01:51:21;;;;;;;1.33;1.23;;;10.10;99.90;;;;;;4994981;28;20308;-75
2020/12/02 01:54:11;;;;;;;0.73;0.73;;;10.10;99.90;;;;;;4994978;28;20227;-75
2020/12/02 01:56:57;;;;;;;2.88;1.15;;;9.90;99.90;;;;;;4994942;28;20216;-75
2020/12/02 01:59:36;;;;;;;11.38;2.45;;;9.80;99.90;;;;;;4995289;28;20173;-75
2020/12/02 02:02:27;;;;;;;2.78;1.73;;;9.60;99.90;;;;;;4994843;28;20196;-75
2020/12/02 02:05:24;;;;;;;15.10;1.73;;;9.70;99.90;;;;;;4994764;28;20180;-75
2020/12/02 02:07:51;;;;;;;1.27;1.27;;;9.60;99.90;;;;;;4990837;28;20185;-75
2020/12/02 02:10:26;;;;;;;3.08;2.00;;;10.00;99.90;;;;;;4993673;28;20622;-75
2020/12/02 02:12:55;;;;;;;0.63;0.63;;;10.00;99.90;;;;;;4994650;28;20243;-75
2020/12/02 02:15:32;;;;;;;1.23;1.17;;;10.00;99.90;;;;;;4994764;28;20180;-75
2020/12/02 02:18:00;;;;;;;0.82;0.82;;;10.10;99.90;;;;;;4995153;28;20161;-75
2020/12/02 02:20:33;;;;;;;6.40;1.45;;;10.10;99.90;;;;;;4996029;28;20189;-74
2020/12/02 02:23:00;;;;;;;2.10;1.63;;;10.00;99.90;;;;;;4997110;28;20567;-75
2020/12/02 02:25:26;;;;;;;2.83;2.00;;;9.60;99.90;;;;;;4996979;28;20177;-75
2020/12/02 02:27:55;;;;;;;3.97;1.38;;;9.50;99.90;;;;;;4995740;28;20173;-75
2020/12/02 02:30:21;;;;;;;1.30;1.27;;;9.70;99.90;;;;;;4994462;28;20201;-75
2020/12/02 02:32:47;;;;;;;3.30;2.25;;;9.80;99.90;;;;;;4994508;28;20211;-75
2020/12/02 02:35:13;;;;;;;2.45;1.23;;;9.60;99.90;;;;;;4994464;28;20581;-75
2020/12/02 02:37:39;;;;;;;1.85;1.75;;;9.60;99.90;;;;;;4994783;28;20256;-75
2020/12/02 02:40:08;;;;;;;2.25;2.00;;;9.60;99.90;;;;;;4995094;28;20252;-75
2020/12/02 02:42:36;;;;;;;4.85;2.28;;;9.60;99.90;;;;;;4995862;28;20256;-75
2020/12/02 02:45:11;;;;;;;0.40;0.40;;;9.50;99.90;;;;;;4995983;28;20172;-75
2020/12/02 02:47:37;;;;;;;0.85;0.85;;;9.40;99.90;;;;;;4996299;28;20180;-74
2020/12/02 02:50:07;;;;;;;1.50;1.40;;;9.40;99.90;;;;;;4995240;28;20200;-74
2020/12/02 02:52:33;;;;;;;1.92;1.80;;;9.50;99.90;;;;;;4994146;28;20610;-75
2020/12/02 02:54:58;;;;;;;0.88;0.88;;;9.70;99.90;;;;;;4994498;28;20273;-75
2020/12/02 02:57:24;;;;;;;0.77;0.77;;;9.70;99.90;;;;;;4994244;28;20512;-75
2020/12/02 02:59:50;;;;;;;0.90;0.90;;;9.90;99.90;;;;;;4995480;28;20177;-75
2020/12/02 03:02:16;;;;;;;5.88;1.63;;;10.00;99.90;;;;;;4997429;28;20192;-75
2020/12/02 03:04:41;;;;;;;1.05;1.05;;;10.20;99.90;;;;;;4996358;28;20161;-74
2020/12/02 03:07:14;;;;;;;1.92;1.60;;;10.40;99.90;;;;;;4994908;28;20196;-75
2020/12/02 03:09:39;;;;;;;2.45;2.35;;;10.40;99.90;;;;;;4994571;28;20172;-74
2020/12/02 03:12:05;;;;;;;1.70;1.30;;;10.40;99.90;;;;;;4994031;28;20189;-75
2020/12/02 03:14:31;;;;;;;1.58;1.48;;;10.20;99.90;;;;;;4994871;28;20237;-75
2020/12/02 03:16:58;;;;;;;1.23;1.13;;;9.90;99.90;;;;;;4994719;28;20173;-75
2020/12/02 03:19:28;;;;;;;1.00;1.00;;;9.90;99.90;;;;;;4995059;28;20184;-76
2020/12/02 03:21:56;;;;;;;1.85;1.45;;;10.10;99.90;;;;;;4993744;28;20193;-74
2020/12/02 03:24:25;;;;;;;1.48;1.38;;;10.30;99.90;;;;;;4996997;28;20164;-76
2020/12/02 03:26:50;;;;;;;4.22;2.15;;;10.30;99.90;;;;;;4994061;28;20644;-73
2020/12/02 03:29:18;;;;;;;0.85;0.85;;;10.50;99.90;;;;;;4993766;28;20224;-73
2020/12/02 03:31:44;;;;;;;1.48;1.38;;;10.60;99.90;;;;;;4992423;28;20315;-74
2020/12/02 03:34:13;;;;;;;1.15;1.15;;;10.10;99.90;;;;;;4993760;28;20216;-74
2020/12/02 03:36:39;;;;;;;0.80;0.80;;;10.10;99.90;;;;;;4994003;28;20172;-74
2020/12/02 03:39:07;;;;;;;0.95;0.80;;;10.20;99.90;;;;;;4993973;28;20185;-74
2020/12/02 03:41:34;;;;;;;1.70;1.60;;;10.20;99.90;;;;;;4995259;28;20181;-74
2020/12/02 03:43:59;;;;;;;0.35;0.35;;;10.00;99.90;;;;;;4995157;28;20222;-75
2020/12/02 03:46:25;;;;;;;4.05;0.95;;;10.00;99.90;;;;;;4995146;28;20252;-75
2020/12/02 03:48:51;;;;;;;4.10;2.42;;;9.90;99.90;;;;;;4995859;28;20169;-74
2020/12/02 03:51:17;;;;;;;0.77;0.77;;;10.00;99.90;;;;;;4992959;28;20707;-73
2020/12/02 03:53:43;;;;;;;1.15;1.13;;;9.90;99.90;;;;;;4997030;28;20216;-74
2020/12/02 03:56:09;;;;;;;1.67;1.58;;;10.00;99.90;;;;;;4995362;28;20173;-75
2020/12/02 03:58:34;;;;;;;1.00;1.00;;;10.00;99.90;;;;;;4992170;28;20181;-74
2020/12/02 04:01:01;;;;;;;2.83;2.25;;;10.00;99.90;;;;;;4993673;28;20197;-74
2020/12/02 04:03:26;;;;;;;2.38;1.55;;;9.80;99.90;;;;;;4993607;28;20172;-74
2020/12/02 04:05:52;;;;;;;2.78;1.17;;;9.80;99.90;;;;;;4993932;28;20252;-74
2020/12/02 04:08:17;;;;;;;0.55;0.55;;;9.90;99.90;;;;;;4994341;28;20149;-75
2020/12/02 04:10:43;;;;;;;1.40;0.75;;;10.00;99.90;;;;;;4993996;28;20699;-74
2020/12/02 04:13:08;;;;;;;1.80;1.45;;;10.10;99.90;;;;;;4993061;28;20176;-74
2020/12/02 04:15:34;;;;;;;1.65;1.25;;;10.20;99.90;;;;;;4992144;28;20655;-74
2020/12/02 04:17:59;;;;;;;2.42;1.27;;;10.20;99.90;;;;;;4993987;28;20162;-74
2020/12/02 04:20:25;;;;;;;2.13;1.98;;;10.00;99.90;;;;;;4993723;28;20169;-74
2020/12/02 04:22:53;;;;;;;1.75;1.65;;;10.00;99.90;;;;;;4993184;28;20189;-75
2020/12/02 04:25:22;;;;;;;0.75;0.75;;;9.90;99.90;;;;;;4993135;28;20200;-75
2020/12/02 04:27:48;;;;;;;0.32;0.32;;;9.90;99.90;;;;;;4993192;28;20197;-75
2020/12/02 04:30:14;;;;;;;4.35;1.85;;;9.90;99.90;;;;;;4991613;28;20237;-75
2020/12/02 04:32:40;;;;;;;1.27;1.17;;;9.70;99.90;;;;;;4993117;28;20665;-75
2020/12/02 04:35:07;;;;;;;1.00;1.00;;;9.40;99.90;;;;;;4995778;28;20236;-74
2020/12/02 04:37:34;;;;;;;0.85;0.85;;;9.30;99.90;;;;;;4996597;28;20173;-74
2020/12/02 04:40:00;;;;;;;1.92;1.70;;;9.20;99.90;;;;;;4995824;28;20173;-74
2020/12/02 04:42:37;;;;;;;2.33;1.58;;;9.20;99.90;;;;;;4996330;28;20196;-74
2020/12/02 04:45:04;;;;;;;2.17;1.60;;;9.20;99.90;;;;;;4996725;28;20157;-75
2020/12/02 04:47:37;;;;;;;0.68;0.68;;;9.30;99.90;;;;;;4996437;28;20165;-74
2020/12/02 04:50:13;;;;;;;3.55;1.65;;;9.40;99.90;;;;;;4995079;28;20256;-75
2020/12/02 04:52:44;;;;;;;2.22;1.90;;;9.40;99.90;;;;;;5002016;28;20275;-74
2020/12/02 04:55:10;;;;;;;6.22;1.85;;;9.30;99.90;;;;;;5001879;28;20180;-74
2020/12/02 04:57:36;;;;;;;0.95;0.95;;;9.50;99.90;;;;;;4997616;28;20165;-74
2020/12/02 05:00:29;;;;;;;0.55;0.55;;;9.40;99.90;;;;;;4998484;28;20177;-75
2020/12/02 05:03:06;;;;;;;1.25;1.23;;;9.60;99.90;;;;;;4998508;28;20216;-75
2020/12/02 05:05:31;;;;;;;0.98;0.77;;;9.70;99.90;;;;;;4997943;28;20165;-75
2020/12/02 05:07:57;;;;;;;1.20;1.17;;;9.70;99.90;;;;;;4997799;28;20162;-74
2020/12/02 05:10:22;;;;;;;1.05;1.05;;;9.90;99.90;;;;;;4998232;28;20571;-75
2020/12/02 05:12:48;;;;;;;1.30;1.00;;;9.50;99.90;;;;;;4996533;28;20204;-75
2020/12/02 05:15:25;;;;;;;2.47;1.17;;;9.70;99.90;;;;;;4997374;28;20170;-75
2020/12/02 05:18:09;;;;;;;2.97;1.67;;;9.80;99.90;;;;;;4995799;28;20172;-76
2020/12/02 05:20:34;;;;;;;0.80;0.80;;;9.60;99.90;;;;;;4998073;28;20644;-76
2020/12/02 05:23:10;;;;;;;1.63;1.55;;;9.80;99.90;;;;;;4997107;28;20195;-74
2020/12/02 05:25:36;;;;;;;1.60;1.50;;;9.70;99.90;;;;;;4997620;28;20597;-74
2020/12/02 05:28:25;;;;;;;1.98;1.27;;;9.80;99.90;;;;;;4997811;28;20224;-74
2020/12/02 05:31:12;;;;;;;0.95;0.95;;;10.00;99.90;;;;;;4997872;28;20209;-75
2020/12/02 05:33:38;;;;;;;0.70;0.70;;;9.80;99.90;;;;;;4997433;28;20169;-76
2020/12/02 05:36:29;;;;;;;0.75;0.75;;;9.80;99.90;;;;;;4997155;28;20285;-74
2020/12/02 05:39:11;;;;;;;1.63;1.52;;;9.50;99.90;;;;;;4996519;28;20169;-74
2020/12/02 05:41:37;;;;;;;3.13;0.82;;;9.40;99.90;;;;;;4997468;28;20684;-75
2020/12/02 05:44:12;;;;;;;1.33;1.33;;;9.40;99.90;;;;;;4997938;28;20168;-75
2020/12/02 05:46:53;;;;;;;0.75;0.52;;;9.30;99.90;;;;;;4996465;28;20183;-74
2020/12/02 05:49:42;;;;;;;1.92;1.83;;;9.30;99.90;;;;;;4996329;28;20173;-75
2020/12/02 05:52:20;;;;;;;1.50;1.48;;;9.20;99.90;;;;;;4995509;28;20656;-74
2020/12/02 05:54:48;;;;;;;1.45;0.93;;;9.10;99.90;;;;;;4995829;28;20154;-75
2020/12/02 05:57:18;;;;;;;2.50;1.05;;;9.20;99.90;;;;;;4996120;28;20169;-74
2020/12/02 05:59:49;;;;;;;4.43;1.17;;;9.20;99.90;;;;;;4996182;28;20252;-74
2020/12/02 06:02:17;;;;;;;0.93;0.85;;;9.30;99.90;;;;;;4995930;28;20235;-75
2020/12/02 06:04:48;;;;;;;4.90;1.50;;;9.40;99.90;;;;;;4995618;28;20196;-75
2020/12/02 06:07:14;;;;;;;19.75;1.77;;;9.40;99.90;;;;;;4995651;28;20173;-75
2020/12/02 06:09:48;;;;;;;1.83;1.73;;;9.50;99.90;;;;;;4996132;28;20176;-75
2020/12/02 06:12:23;;;;;;;1.27;1.27;;;9.50;99.90;;;;;;4996305;28;20213;-74
2020/12/02 06:14:50;;;;;;;1.67;1.60;;;9.50;99.90;;;;;;4995730;28;20160;-74
2020/12/02 06:17:29;;;;;;;1.48;1.38;;;9.50;99.90;;;;;;4995382;28;20165;-74
2020/12/02 06:19:55;;;;;;;1.55;1.42;;;9.30;99.90;;;;;;4996193;28;20191;-75
2020/12/02 06:22:46;;;;;;;1.10;1.10;;;9.20;99.90;;;;;;4995931;28;20271;-75
2020/12/02 06:25:49;;;;;;;1.02;1.02;;;9.20;99.90;;;;;;4993860;28;20173;-75
2020/12/02 06:28:32;;;;;;;5.20;2.10;;;9.30;99.90;;;;;;4994709;28;20627;-75
2020/12/02 06:31:24;;;;;;;0.93;0.93;;;8.90;99.90;;;;;;4994759;28;20205;-73
2020/12/02 06:33:50;;;;;;;1.30;1.20;;;8.80;99.90;;;;;;4995075;28;20648;-75
2020/12/02 06:36:18;;;;;;;1.60;1.45;;;8.80;99.90;;;;;;4994910;28;20244;-75
2020/12/02 06:38:46;;;;;;;1.05;1.05;;;8.80;99.90;;;;;;4993560;28;20299;-74
2020/12/02 06:41:33;;;;;;;1.30;1.23;;;9.00;99.90;;;;;;4993422;28;20280;-75
2020/12/02 06:44:12;;;;;;;1.42;1.33;;;9.10;99.90;;;;;;4986081;28;20693;-76
2020/12/02 06:46:41;;;;;;;0.85;0.85;;;9.30;99.90;;;;;;4973127;28;20264;-75
2020/12/02 06:49:07;;;;;;;4.57;2.63;;;9.10;99.90;;;;;;4963396;28;20226;-75
2020/12/02 06:51:33;;;;;;;1.15;0.95;;;9.30;99.90;;;;;;4973113;28;20217;-74
2020/12/02 06:53:58;;;;;;;1.52;0.77;;;9.20;99.90;;;;;;4973978;28;20189;-73
2020/12/02 06:56:24;;;;;;;5.22;2.70;;;9.20;99.90;;;;;;4973589;28;20312;-73
2020/12/02 06:59:04;;;;;;;0.30;0.30;;;9.20;99.90;;;;;;4984284;28;20173;-74
2020/12/02 07:01:32;;;;;;;2.28;1.48;;;9.10;99.90;;;;;;4993474;28;20204;-75
2020/12/02 07:04:00;;;;;;;1.85;0.95;;;9.30;99.90;;;;;;4994112;28;20244;-75
2020/12/02 07:06:30;;;;;;;0.77;0.77;;;9.30;99.90;;;;;;4993624;28;20303;-75
2020/12/02 07:09:03;;;;;;;1.67;1.48;;;9.50;99.90;;;;;;4992637;28;20172;-74
2020/12/02 07:11:31;;;;;;;1.33;1.27;;;9.30;99.90;;;;;;4995086;28;20240;-74
2020/12/02 07:14:14;;;;;;;5.22;2.10;;;9.20;99.90;;;;;;4994149;28;20160;-76
2020/12/02 07:16:39;;;;;;;0.93;0.93;;;9.30;99.90;;;;;;4993298;28;20254;-75
2020/12/02 07:19:13;;;;;;;2.25;2.05;;;9.40;99.90;;;;;;4992587;28;20577;-75
2020/12/02 07:21:47;;;;;;;1.05;1.05;;;9.40;99.90;;;;;;4993390;28;20189;-75
2020/12/02 07:24:19;;;;;;;2.70;1.75;;;9.60;99.90;;;;;;4994164;28;20165;-75
2020/12/02 07:26:45;;;;;;;2.33;2.15;;;9.70;99.90;;;;;;4987706;28;20182;-75
2020/12/02 07:29:19;;;;;;;13.55;2.92;;;9.80;99.90;;;;;;4973549;28;20218;-74
2020/12/02 07:31:45;;;;;;;2.00;1.90;;;9.90;99.90;;;;;;4972341;28;20719;-74
2020/12/02 07:34:16;;;;;;;1.50;1.40;;;9.60;99.90;;;;;;4972945;28;20192;-74
2020/12/02 07:36:42;;;;;;;4.97;1.33;;;9.30;99.90;;;;;;4973836;28;20170;-74
2020/12/02 07:39:15;;;;;;;1.15;1.10;;;9.20;99.90;;;;;;4973636;28;20194;-74
2020/12/02 07:41:55;;;;;;;1.17;1.17;;;9.10;99.90;;;;;;4972587;28;20666;-74
2020/12/02 07:44:22;;;;;;;2.75;2.45;;;9.10;99.90;;;;;;4974136;28;20158;-75
2020/12/02 07:46:49;;;;;;;1.75;1.65;;;9.30;99.90;;;;;;4975304;28;20649;-75
2020/12/02 07:49:16;;;;;;;4.60;1.77;;;9.30;99.90;;;;;;4974455;28;20178;-75
2020/12/02 07:51:54;;;;;;;8.35;3.40;;;9.10;99.90;;;;;;4974465;28;20644;-74
2020/12/02 07:54:26;;;;;;;7.78;3.28;;;9.00;99.90;;;;;;4977182;28;20173;-74
2020/12/02 07:56:52;;;;;;;1.02;0.85;;;9.20;99.90;;;;;;4976924;28;20178;-74
2020/12/02 07:59:22;;;;;;;1.33;1.23;;;9.30;99.90;;;;;;4974655;28;20224;-74
2020/12/02 08:01:56;;;;;;;1.90;1.75;;;9.40;99.90;;;;;;4975025;28;20205;-74
2020/12/02 08:04:22;;;;;;;1.85;1.75;;;9.20;99.90;;;;;;4974548;28;20169;-78
2020/12/02 08:07:11;;;;;;;2.38;2.03;;;9.00;99.90;;;;;;4975287;28;20527;-74
2020/12/02 08:09:40;;;;;;;2.72;2.53;;;9.10;99.90;;;;;;4984281;28;20173;-74
2020/12/02 08:12:12;;;;;;;2.67;2.35;;;9.10;99.90;;;;;;4976611;28;20221;-74
2020/12/02 08:14:41;;;;;;;1.88;1.77;;;9.20;99.90;;;;;;4978095;28;20167;-75
2020/12/02 08:17:19;;;;;;;4.18;2.85;;;9.10;99.90;;;;;;4977668;28;20174;-75
2020/12/02 08:19:51;;;;;;;1.52;1.42;;;9.00;99.90;;;;;;4977425;28;20178;-75
2020/12/02 08:22:32;;;;;;;2.40;1.48;;;9.00;99.90;;;;;;4977269;28;20228;-75
2020/12/02 08:25:11;;;;;;;3.33;2.65;;;9.10;99.90;;;;;;4977829;28;20170;-75
2020/12/02 08:27:37;;;;;;;1.95;1.85;;;9.30;99.90;;;;;;4976996;28;22024;-74
2020/12/02 08:30:11;;;;;;;1.88;1.20;;;9.40;99.90;;;;;;4977784;28;20616;-74
2020/12/02 08:32:54;;;;;;;0.93;0.93;;;9.40;99.90;;;;;;4978987;28;20240;-74
2020/12/02 08:35:37;;;;;;;0.40;0.40;;;9.50;99.90;;;;;;4978160;28;20685;-73
2020/12/02 08:38:02;;;;;;;1.23;1.23;;;9.60;99.90;;;;;;4977541;28;20166;-75
2020/12/02 08:40:38;;;;;;;0.90;0.90;;;9.80;99.90;;;;;;4977448;28;20178;-74
2020/12/02 08:43:32;;;;;;;1.63;1.55;;;9.80;99.90;;;;;;4977341;28;20253;-74
2020/12/02 08:46:06;;;;;;;2.88;2.72;;;9.90;99.90;;;;;;4976916;28;20225;-74
2020/12/02 08:48:32;;;;;;;1.67;1.58;;;9.70;99.90;;;;;;4976796;28;20614;-74
2020/12/02 08:50:58;;;;;;;2.25;2.13;;;9.40;99.90;;;;;;4976867;28;20265;-84
2020/12/02 08:53:29;;;;;;;3.78;1.30;;;9.60;99.90;;;;;;4977936;28;20634;-74
2020/12/02 08:55:56;;;;;;;3.20;2.75;;;9.60;99.90;;;;;;4976901;28;20170;-74
2020/12/02 08:58:22;;;;;;;2.08;0.75;;;9.50;99.90;;;;;;4976766;28;20525;-74
2020/12/02 09:00:49;;;;;;;5.95;2.13;;;9.50;99.90;;;;;;4977053;28;20162;-74
2020/12/02 09:03:15;;;;;;;6.15;1.92;;;9.60;99.90;;;;;;4978880;28;20192;-75
2020/12/02 09:05:41;;;;;;;2.70;2.03;;;9.80;99.90;;;;;;4979891;28;20209;-74
2020/12/02 09:08:07;;;;;;;3.70;2.35;;;10.00;99.90;;;;;;4979542;28;20154;-75
2020/12/02 09:10:33;;;;;;;3.58;2.10;;;10.10;99.90;;;;;;4978452;28;20748;-75
2020/12/02 09:12:59;;;;;;;2.17;1.98;;;10.00;99.90;;;;;;4977658;28;20227;-74
2020/12/02 09:15:27;;;;;;;3.17;2.00;;;9.80;99.90;;;;;;4978456;28;20244;-74
2020/12/02 09:17:56;;;;;;;1.63;1.52;;;9.70;99.90;;;;;;4978381;28;20169;-75
2020/12/02 09:20:23;;;;;;;2.67;2.15;;;9.60;99.90;;;;;;4975588;28;20194;-74
2020/12/02 09:22:50;;;;;;;0.95;0.90;;;9.60;99.90;;;;;;4974538;28;20284;-75
2020/12/02 09:25:16;;;;;;;1.02;1.02;;;9.70;99.90;;;;;;4975830;28;20246;-75
2020/12/02 09:27:42;;;;;;;1.10;1.05;;;10.00;99.90;;;;;;4975953;28;20169;-74
2020/12/02 09:30:09;;;;;;;1.92;1.83;;;10.10;99.90;;;;;;4975913;28;20223;-75
2020/12/02 09:32:35;;;;;;;1.15;1.13;;;10.10;99.90;;;;;;4974465;28;20277;-73
2020/12/02 09:35:00;;;;;;;4.72;2.72;;;10.10;99.90;;;;;;4976462;28;20590;-74
2020/12/02 09:37:26;;;;;;;0.93;0.93;;;10.30;99.90;;;;;;4975779;28;20184;-75
2020/12/02 09:39:55;;;;;;;4.75;1.10;;;10.30;99.90;;;;;;4975948;28;20220;-74
2020/12/02 09:42:48;;;;;;;1.13;1.08;;;10.40;99.90;;;;;;4975525;28;20189;-74
2020/12/02 09:45:41;;;;;;;1.95;1.85;;;10.40;99.90;;;;;;4975585;28;20210;-74
2020/12/02 09:48:17;;;;;;;3.97;1.15;;;10.70;99.90;;;;;;4977260;28;20182;-73
2020/12/02 09:50:43;;;;;;;2.90;1.95;;;10.60;99.90;;;;;;4979626;28;20509;-74
2020/12/02 09:53:20;;;;;;;1.13;0.98;;;10.50;99.90;;;;;;4981936;28;20261;-74
2020/12/02 09:55:47;;;;;;;2.47;1.77;;;10.30;99.90;;;;;;4975732;28;20166;-74
2020/12/02 09:58:15;;;;;;;2.47;2.20;;;10.30;99.90;;;;;;4976091;28;20573;-75
2020/12/02 10:00:41;;;;;;;1.58;1.48;;;10.40;99.90;;;;;;4975903;28;20185;-75
2020/12/02 10:03:29;;;;;;;6.82;3.85;;;10.40;99.90;;;;;;4974106;28;20185;-76
2020/12/02 10:06:14;;;;;;;1.67;1.58;;;10.60;99.90;;;;;;4973934;28;20174;-73
2020/12/02 10:08:43;;;;;;;5.18;2.20;;;10.80;99.90;;;;;;4971028;28;20257;-74
2020/12/02 10:11:22;;;;;;;1.60;1.38;;;10.90;99.90;;;;;;4973906;28;20233;-74
2020/12/02 10:14:25;;;;;;;2.58;2.15;;;10.80;99.90;;;;;;4972504;28;20204;-74
2020/12/02 10:17:10;;;;;;;2.53;1.20;;;10.40;99.90;;;;;;4972555;28;20217;-75
2020/12/02 10:20:08;;;;;;;3.55;2.13;;;10.60;99.90;;;;;;4973894;28;20189;-74
2020/12/02 10:22:56;;;;;;;1.38;1.27;;;10.70;99.90;;;;;;4972602;28;20316;-75
2020/12/02 10:25:52;;;;;;;3.63;1.35;;;10.60;99.90;;;;;;4972349;28;20192;-74
2020/12/02 10:28:37;;;;;;;1.73;0.90;;;10.30;99.90;;;;;;4973117;28;20728;-76
2020/12/02 10:31:25;;;;;;;1.80;1.55;;;10.30;99.90;;;;;;4973311;28;20214;-73
2020/12/02 10:34:06;;;;;;;2.30;2.03;;;10.50;99.90;;;;;;4974050;28;20229;-74
2020/12/02 10:36:42;;;;;;;8.27;2.95;;;10.80;99.90;;;;;;4972408;28;20221;-73
2020/12/02 10:39:13;;;;;;;2.03;1.20;;;10.70;99.90;;;;;;4973567;28;20185;-74
2020/12/02 10:42:23;;;;;;;2.33;2.00;;;10.20;99.90;;;;;;4977976;28;20200;-74
2020/12/02 10:45:05;;;;;;;6.82;2.17;;;10.30;99.90;;;;;;4993438;28;20203;-74
2020/12/02 10:47:58;;;;;;;6.97;1.85;;;10.40;99.90;;;;;;4993399;28;20165;-74
2020/12/02 10:50:26;;;;;;;3.60;1.83;;;10.60;99.90;;;;;;4992611;28;20209;-74
2020/12/02 10:52:54;;;;;;;6.85;1.98;;;10.50;99.90;;;;;;4992923;28;20185;-75
2020/12/02 10:55:23;;;;;;;2.35;1.65;;;10.40;99.90;;;;;;4992774;28;20175;-73
2020/12/02 10:58:25;;;;;;;2.65;2.45;;;10.60;99.90;;;;;;4991300;28;20522;-74
2020/12/02 11:01:00;;;;;;;2.22;1.85;;;10.80;99.90;;;;;;4987794;28;20792;-74
2020/12/02 11:03:33;;;;;;;4.55;1.98;;;10.80;99.90;;;;;;4992891;28;20222;-75
2020/12/02 11:06:25;;;;;;;1.23;1.13;;;11.00;99.90;;;;;;4992971;28;20157;-75
2020/12/02 11:09:09;;;;;;;3.38;2.30;;;10.80;99.90;;;;;;4992236;28;20621;-74
2020/12/02 11:11:53;;;;;;;1.02;1.02;;;10.60;99.90;;;;;;4992026;28;20223;-75
2020/12/02 11:14:44;;;;;;;3.40;2.70;;;10.70;99.90;;;;;;4991755;28;20539;-75
2020/12/02 11:17:39;;;;;;;2.60;1.88;;;10.60;99.90;;;;;;4992606;28;20191;-76
2020/12/02 11:20:10;;;;;;;6.07;1.80;;;10.60;99.90;;;;;;4991514;28;20237;-75
2020/12/02 11:23:01;;;;;;;2.53;2.15;;;11.00;99.90;;;;;;4993322;28;20189;-74
2020/12/02 11:25:35;;;;;;;9.95;2.63;;;11.10;99.90;;;;;;4990922;28;20165;-75
2020/12/02 11:28:01;;;;;;;3.13;1.33;;;10.90;99.90;;;;;;4992789;28;20288;-75
2020/12/02 11:30:34;;;;;;;2.08;1.98;;;10.80;99.90;;;;;;4992414;28;20303;-75
2020/12/02 11:33:05;;;;;;;2.22;1.85;;;10.60;99.90;;;;;;4992416;28;20193;-75
2020/12/02 11:36:10;;;;;;;3.35;2.20;;;10.80;99.90;;;;;;4993451;28;20165;-75
2020/12/02 11:39:09;;;;;;;2.35;2.22;;;10.90;99.90;;;;;;4993301;28;20656;-75
2020/12/02 11:41:53;;;;;;;5.32;2.03;;;10.90;99.90;;;;;;4992935;28;20201;-75
2020/12/02 11:44:33;;;;;;;5.10;1.55;;;10.60;99.90;;;;;;4997666;28;20185;-75
2020/12/02 11:47:23;;;;;;;4.35;1.85;;;10.80;99.90;;;;;;4996776;28;20165;-75
2020/12/02 11:49:56;;;;;;;1.60;1.50;;;11.20;99.90;;;;;;4998202;28;20165;-75
2020/12/02 11:53:09;;;;;;;2.90;1.45;;;11.40;99.90;;;;;;4996980;28;20209;-74
2020/12/02 11:55:36;;;;;;;3.88;1.73;;;11.30;99.90;;;;;;4997275;28;20177;-75
2020/12/02 11:58:05;;;;;;;2.90;2.22;;;11.30;99.90;;;;;;4995420;28;20177;-76
2020/12/02 12:00:30;;;;;;;1.65;1.55;;;11.50;99.90;;;;;;4996569;28;20169;-75
2020/12/02 12:03:21;;;;;;;5.15;2.28;;;11.60;99.90;;;;;;4996370;28;20220;-73
2020/12/02 12:06:16;;;;;;;3.25;1.25;;;11.20;99.90;;;;;;4995767;28;20181;-75
2020/12/02 12:09:07;;;;;;;3.60;2.20;;;11.10;99.90;;;;;;4995316;28;20216;-74
2020/12/02 12:11:38;;;;;;;4.40;2.40;;;11.30;99.90;;;;;;4996888;28;20231;-73
2020/12/02 12:14:41;;;;;;;0.63;0.63;;;11.50;99.90;;;;;;4996568;28;20550;-75
2020/12/02 12:17:16;;;;;;;0.95;0.95;;;11.80;99.90;;;;;;4997413;28;20157;-75
2020/12/02 12:19:49;;;;;;;2.28;1.55;;;11.80;99.90;;;;;;5000989;28;20280;-74
2020/12/02 12:22:21;;;;;;;4.90;3.45;;;11.50;99.90;;;;;;5006349;28;20193;-75
2020/12/02 12:24:48;;;;;;;4.85;1.20;;;11.30;99.90;;;;;;5007282;28;20157;-75
2020/12/02 12:27:20;;;;;;;5.90;2.90;;;11.20;99.90;;;;;;4997849;28;20239;-76
2020/12/02 12:29:46;;;;;;;1.42;1.35;;;11.30;99.90;;;;;;4996681;28;20213;-75
2020/12/02 12:32:31;;;;;;;1.85;1.63;;;11.40;99.90;;;;;;4996897;28;20688;-75
2020/12/02 12:35:04;;;;;;;1.45;1.00;;;11.20;99.90;;;;;;4997642;28;20166;-76
2020/12/02 12:37:52;;;;;;;3.03;1.95;;;10.90;99.90;;;;;;5001053;28;20187;-74
2020/12/02 12:40:23;;;;;;;8.95;2.50;;;11.00;99.90;;;;;;5001201;28;20239;-75
2020/12/02 12:42:53;;;;;;;2.38;2.28;;;11.00;99.90;;;;;;4999057;28;20248;-79
2020/12/02 12:45:29;;;;;;;1.63;1.52;;;11.00;99.90;;;;;;4995669;28;20231;-76
2020/12/02 12:47:57;;;;;;;2.25;1.42;;;10.70;99.90;;;;;;4995589;28;20153;-75
2020/12/02 12:50:23;;;;;;;7.97;2.78;;;10.70;99.90;;;;;;4993039;28;20208;-75
2020/12/02 12:52:51;;;;;;;3.13;1.63;;;10.70;99.90;;;;;;4960589;28;20276;-74
2020/12/02 12:55:17;;;;;;;1.73;1.63;;;10.80;99.90;;;;;;4975306;28;20168;-75
2020/12/02 12:57:48;;;;;;;1.65;1.55;;;10.70;99.90;;;;;;4973281;28;20540;-74
2020/12/02 13:00:15;;;;;;;1.88;1.75;;;10.90;99.90;;;;;;4975473;28;20708;-75
2020/12/02 13:02:42;;;;;;;3.50;2.60;;;10.90;99.90;;;;;;4977753;28;20197;-75
2020/12/02 13:05:11;;;;;;;2.83;1.98;;;10.80;99.90;;;;;;4976867;28;20185;-76
2020/12/02 13:07:38;;;;;;;3.25;3.00;;;10.90;99.90;;;;;;4961215;28;20174;-75
2020/12/02 13:10:16;;;;;;;4.15;2.38;;;10.90;99.90;;;;;;4958334;28;20186;-75
2020/12/02 13:13:03;;;;;;;1.55;1.45;;;10.70;99.90;;;;;;4989169;28;20219;-75
2020/12/02 13:15:47;;;;;;;2.20;2.03;;;10.60;99.90;;;;;;4974212;28;20510;-76
2020/12/02 13:18:40;;;;;;;1.73;1.63;;;10.40;99.90;;;;;;4978254;28;20170;-75
2020/12/02 13:21:44;;;;;;;5.25;2.05;;;10.30;99.90;;;;;;4975615;28;20194;-75
2020/12/02 13:24:12;;;;;;;2.35;2.25;;;10.20;99.90;;;;;;4975778;28;20169;-74